Paradise Valley, Canada
Current Conditions -  °F | °C
As of 10:33 PM on Sunday 21 Dec 2014 (Local Time) from CYLL Reporting Station
Light Snow Light Snow  
Wind Chill: 19°   Ceiling: 2300
Heat Index: 19°   Visibility: 1.5mi
Dew Point: 18°   Wind: 3mph
Humidity: 93%   Direction: 300°WNW
Pressure: 29.56"   Gusts: NA
Location:  53.03°N, 110.33°W
Report Text: CYLL 220533Z AUTO 30003KT 230V310 1 1/2SM -SN OVC023 M07/M08 A2956 RMK SLP052
Loading
Personal Weather Stations






























Interactive Weather Map New forecast layout! Learn more

10-Day Weather Forecast

Advertisements
Track Severe Weather on mobile